sensor_id;sensor_type;location;lat;lon;timestamp;temperature;humidity
12452;DHT22;6291;48.924;12.204;2023-07-31T00:01:08;14.70;1.00
12452;DHT22;6291;48.924;12.204;2023-07-31T00:06:13;14.70;1.00
12452;DHT22;6291;48.924;12.204;2023-07-31T00:11:17;14.60;1.00
12452;DHT22;6291;48.924;12.204;2023-07-31T00:16:20;14.60;1.00
12452;DHT22;6291;48.924;12.204;2023-07-31T00:21:25;14.60;1.00
12452;DHT22;6291;48.924;12.204;2023-07-31T00:26:28;14.60;1.00
12452;DHT22;6291;48.924;12.204;2023-07-31T00:31:33;14.50;1.00
12452;DHT22;6291;48.924;12.204;2023-07-31T00:36:38;14.40;1.00
12452;DHT22;6291;48.924;12.204;2023-07-31T00:41:42;14.40;1.00
12452;DHT22;6291;48.924;12.204;2023-07-31T00:46:46;14.30;1.00
12452;DHT22;6291;48.924;12.204;2023-07-31T00:51:51;14.20;1.00
12452;DHT22;6291;48.924;12.204;2023-07-31T00:56:55;14.20;1.00
12452;DHT22;6291;48.924;12.204;2023-07-31T01:01:59;14.10;5.50
12452;DHT22;6291;48.924;12.204;2023-07-31T01:07:11;14.10;44.90
12452;DHT22;6291;48.924;12.204;2023-07-31T01:12:17;14.00;80.10
12452;DHT22;6291;48.924;12.204;2023-07-31T01:17:20;14.00;99.90
12452;DHT22;6291;48.924;12.204;2023-07-31T01:22:37;14.00;99.90
12452;DHT22;6291;48.924;12.204;2023-07-31T01:27:47;13.90;99.90
12452;DHT22;6291;48.924;12.204;2023-07-31T01:32:54;13.90;99.90
12452;DHT22;6291;48.924;12.204;2023-07-31T01:37:59;13.90;99.90
12452;DHT22;6291;48.924;12.204;2023-07-31T01:43:04;13.90;99.90
12452;DHT22;6291;48.924;12.204;2023-07-31T01:48:08;13.90;99.90
12452;DHT22;6291;48.924;12.204;2023-07-31T01:53:11;14.00;27.80
12452;DHT22;6291;48.924;12.204;2023-07-31T01:58:16;14.10;1.00
12452;DHT22;6291;48.924;12.204;2023-07-31T02:03:20;14.10;1.00
12452;DHT22;6291;48.924;12.204;2023-07-31T02:08:26;14.10;1.00
12452;DHT22;6291;48.924;12.204;2023-07-31T02:13:31;14.00;1.00
12452;DHT22;6291;48.924;12.204;2023-07-31T02:18:34;13.90;1.00
12452;DHT22;6291;48.924;12.204;2023-07-31T02:23:37;13.80;98.80
12452;DHT22;6291;48.924;12.204;2023-07-31T02:28:42;13.70;99.90
12452;DHT22;6291;48.924;12.204;2023-07-31T02:33:46;13.60;99.90
12452;DHT22;6291;48.924;12.204;2023-07-31T02:38:52;13.50;99.90
12452;DHT22;6291;48.924;12.204;2023-07-31T02:43:57;13.50;99.90
12452;DHT22;6291;48.924;12.204;2023-07-31T02:49:01;13.50;99.90
12452;DHT22;6291;48.924;12.204;2023-07-31T02:54:04;13.50;99.90
12452;DHT22;6291;48.924;12.204;2023-07-31T02:59:09;13.40;99.90
12452;DHT22;6291;48.924;12.204;2023-07-31T03:04:13;13.30;99.90
12452;DHT22;6291;48.924;12.204;2023-07-31T03:09:19;13.30;1.00
12452;DHT22;6291;48.924;12.204;2023-07-31T03:14:25;13.30;1.00
12452;DHT22;6291;48.924;12.204;2023-07-31T03:19:31;13.30;1.00
12452;DHT22;6291;48.924;12.204;2023-07-31T03:24:34;13.20;1.00
12452;DHT22;6291;48.924;12.204;2023-07-31T03:29:39;13.10;1.00
12452;DHT22;6291;48.924;12.204;2023-07-31T03:34:43;14.70;44.70
12452;DHT22;6291;48.924;12.204;2023-07-31T03:39:46;13.10;1.00
12452;DHT22;6291;48.924;12.204;2023-07-31T03:44:52;13.10;1.00
12452;DHT22;6291;48.924;12.204;2023-07-31T03:49:56;13.10;1.00
12452;DHT22;6291;48.924;12.204;2023-07-31T03:54:59;13.00;1.00
12452;DHT22;6291;48.924;12.204;2023-07-31T04:00:05;13.10;1.00
12452;DHT22;6291;48.924;12.204;2023-07-31T04:05:16;13.10;1.00
12452;DHT22;6291;48.924;12.204;2023-07-31T04:10:19;13.20;1.00
12452;DHT22;6291;48.924;12.204;2023-07-31T04:15:24;13.10;1.00
12452;DHT22;6291;48.924;12.204;2023-07-31T04:20:27;13.10;1.00
12452;DHT22;6291;48.924;12.204;2023-07-31T04:25:31;13.10;1.00
12452;DHT22;6291;48.924;12.204;2023-07-31T04:30:39;13.00;1.00
12452;DHT22;6291;48.924;12.204;2023-07-31T04:35:49;13.10;1.00
12452;DHT22;6291;48.924;12.204;2023-07-31T04:40:54;13.10;1.00
12452;DHT22;6291;48.924;12.204;2023-07-31T04:45:59;13.30;1.00
12452;DHT22;6291;48.924;12.204;2023-07-31T04:51:03;13.50;1.00
12452;DHT22;6291;48.924;12.204;2023-07-31T04:56:06;13.70;99.90
12452;DHT22;6291;48.924;12.204;2023-07-31T05:01:11;14.10;99.90
12452;DHT22;6291;48.924;12.204;2023-07-31T05:06:15;14.00;1.00
12452;DHT22;6291;48.924;12.204;2023-07-31T05:11:18;14.30;1.00
12452;DHT22;6291;48.924;12.204;2023-07-31T05:16:23;14.70;1.00
12452;DHT22;6291;48.924;12.204;2023-07-31T05:21:27;14.90;1.00
12452;DHT22;6291;48.924;12.204;2023-07-31T05:26:30;15.10;1.00
12452;DHT22;6291;48.924;12.204;2023-07-31T05:31:35;15.10;1.00
12452;DHT22;6291;48.924;12.204;2023-07-31T05:36:40;15.20;1.00
12452;DHT22;6291;48.924;12.204;2023-07-31T05:41:44;15.40;1.00
12452;DHT22;6291;48.924;12.204;2023-07-31T05:46:48;15.50;1.00
12452;DHT22;6291;48.924;12.204;2023-07-31T05:51:52;15.60;1.00
12452;DHT22;6291;48.924;12.204;2023-07-31T05:56:55;15.70;1.00
12452;DHT22;6291;48.924;12.204;2023-07-31T06:02:00;16.00;1.00
12452;DHT22;6291;48.924;12.204;2023-07-31T06:07:04;16.40;1.00
12452;DHT22;6291;48.924;12.204;2023-07-31T06:12:08;16.80;1.00
12452;DHT22;6291;48.924;12.204;2023-07-31T06:17:13;17.10;99.90
12452;DHT22;6291;48.924;12.204;2023-07-31T06:22:16;17.00;99.90
12452;DHT22;6291;48.924;12.204;2023-07-31T06:27:20;17.30;99.90
12452;DHT22;6291;48.924;12.204;2023-07-31T06:32:25;17.50;99.90
12452;DHT22;6291;48.924;12.204;2023-07-31T06:37:28;17.60;99.90
12452;DHT22;6291;48.924;12.204;2023-07-31T06:42:32;17.70;99.90
12452;DHT22;6291;48.924;12.204;2023-07-31T06:47:41;17.90;99.90
12452;DHT22;6291;48.924;12.204;2023-07-31T06:52:50;18.10;99.90
12452;DHT22;6291;48.924;12.204;2023-07-31T06:57:57;18.20;99.90
12452;DHT22;6291;48.924;12.204;2023-07-31T07:03:02;18.40;99.90
12452;DHT22;6291;48.924;12.204;2023-07-31T07:08:05;18.90;99.90
12452;DHT22;6291;48.924;12.204;2023-07-31T07:13:09;19.10;99.90
12452;DHT22;6291;48.924;12.204;2023-07-31T07:18:15;18.70;99.90
12452;DHT22;6291;48.924;12.204;2023-07-31T07:23:19;18.70;99.90
12452;DHT22;6291;48.924;12.204;2023-07-31T07:28:23;18.90;99.90
12452;DHT22;6291;48.924;12.204;2023-07-31T07:33:28;18.80;99.90
12452;DHT22;6291;48.924;12.204;2023-07-31T07:38:32;18.50;99.90
12452;DHT22;6291;48.924;12.204;2023-07-31T07:43:36;18.30;99.90
12452;DHT22;6291;48.924;12.204;2023-07-31T07:48:41;18.40;99.90
12452;DHT22;6291;48.924;12.204;2023-07-31T07:53:45;18.30;99.90
12452;DHT22;6291;48.924;12.204;2023-07-31T07:58:48;18.40;99.90
12452;DHT22;6291;48.924;12.204;2023-07-31T08:03:54;18.30;99.90
12452;DHT22;6291;48.924;12.204;2023-07-31T08:08:57;18.80;99.90
12452;DHT22;6291;48.924;12.204;2023-07-31T08:14:01;18.90;99.90
12452;DHT22;6291;48.924;12.204;2023-07-31T08:19:06;19.20;99.90
12452;DHT22;6291;48.924;12.204;2023-07-31T08:24:12;18.70;99.90
12452;DHT22;6291;48.924;12.204;2023-07-31T08:29:16;19.10;99.90
12452;DHT22;6291;48.924;12.204;2023-07-31T08:34:21;18.90;99.90
12452;DHT22;6291;48.924;12.204;2023-07-31T08:39:24;18.80;99.90
12452;DHT22;6291;48.924;12.204;2023-07-31T08:44:29;19.10;99.90
12452;DHT22;6291;48.924;12.204;2023-07-31T08:49:37;19.30;99.90
12452;DHT22;6291;48.924;12.204;2023-07-31T08:54:42;19.40;99.90
12452;DHT22;6291;48.924;12.204;2023-07-31T08:59:46;16.20;99.90
12452;DHT22;6291;48.924;12.204;2023-07-31T09:04:51;20.00;99.90
12452;DHT22;6291;48.924;12.204;2023-07-31T09:09:55;24.40;99.90
12452;DHT22;6291;48.924;12.204;2023-07-31T09:14:58;19.90;99.90
12452;DHT22;6291;48.924;12.204;2023-07-31T09:20:15;20.20;99.90
12452;DHT22;6291;48.924;12.204;2023-07-31T09:25:20;21.30;99.90
12452;DHT22;6291;48.924;12.204;2023-07-31T09:30:24;21.00;99.90
12452;DHT22;6291;48.924;12.204;2023-07-31T09:35:31;20.40;99.90
12452;DHT22;6291;48.924;12.204;2023-07-31T09:40:37;20.60;99.90
12452;DHT22;6291;48.924;12.204;2023-07-31T09:45:43;20.50;99.90
12452;DHT22;6291;48.924;12.204;2023-07-31T09:50:49;20.00;99.90
12452;DHT22;6291;48.924;12.204;2023-07-31T09:55:53;20.50;99.90
12452;DHT22;6291;48.924;12.204;2023-07-31T10:00:58;20.90;99.90
12452;DHT22;6291;48.924;12.204;2023-07-31T10:06:04;21.40;99.90
12452;DHT22;6291;48.924;12.204;2023-07-31T10:11:10;21.20;99.90
12452;DHT22;6291;48.924;12.204;2023-07-31T10:16:14;21.40;99.90
12452;DHT22;6291;48.924;12.204;2023-07-31T10:21:20;21.50;99.90
12452;DHT22;6291;48.924;12.204;2023-07-31T10:26:25;22.10;99.90
12452;DHT22;6291;48.924;12.204;2023-07-31T10:31:29;22.40;99.90
12452;DHT22;6291;48.924;12.204;2023-07-31T10:36:34;22.10;99.90
12452;DHT22;6291;48.924;12.204;2023-07-31T10:41:38;21.30;99.90
12452;DHT22;6291;48.924;12.204;2023-07-31T10:46:45;21.80;99.90
12452;DHT22;6291;48.924;12.204;2023-07-31T10:51:51;21.70;99.90
12452;DHT22;6291;48.924;12.204;2023-07-31T10:56:59;21.00;99.90
12452;DHT22;6291;48.924;12.204;2023-07-31T11:02:03;21.70;99.90
12452;DHT22;6291;48.924;12.204;2023-07-31T11:07:08;22.10;99.90
12452;DHT22;6291;48.924;12.204;2023-07-31T11:12:13;20.60;99.90
12452;DHT22;6291;48.924;12.204;2023-07-31T11:17:19;22.50;99.90
12452;DHT22;6291;48.924;12.204;2023-07-31T11:22:25;23.20;99.90
12452;DHT22;6291;48.924;12.204;2023-07-31T11:27:29;23.00;99.90
12452;DHT22;6291;48.924;12.204;2023-07-31T11:32:32;22.40;99.90
12452;DHT22;6291;48.924;12.204;2023-07-31T11:37:41;23.10;99.90
12452;DHT22;6291;48.924;12.204;2023-07-31T11:42:45;24.00;99.90
12452;DHT22;6291;48.924;12.204;2023-07-31T11:47:49;24.50;99.90
12452;DHT22;6291;48.924;12.204;2023-07-31T11:53:00;23.00;99.90
12452;DHT22;6291;48.924;12.204;2023-07-31T11:58:05;23.40;99.90
12452;DHT22;6291;48.924;12.204;2023-07-31T12:03:10;25.00;99.90
12452;DHT22;6291;48.924;12.204;2023-07-31T12:08:15;22.90;99.90
12452;DHT22;6291;48.924;12.204;2023-07-31T12:13:21;21.40;99.90
12452;DHT22;6291;48.924;12.204;2023-07-31T12:18:26;23.30;99.90
12452;DHT22;6291;48.924;12.204;2023-07-31T12:23:32;24.60;99.90
12452;DHT22;6291;48.924;12.204;2023-07-31T12:28:37;24.30;99.90
12452;DHT22;6291;48.924;12.204;2023-07-31T12:33:41;24.30;99.90
12452;DHT22;6291;48.924;12.204;2023-07-31T12:38:47;24.30;99.90
12452;DHT22;6291;48.924;12.204;2023-07-31T12:43:51;25.40;99.90
12452;DHT22;6291;48.924;12.204;2023-07-31T12:48:54;24.30;99.90
12452;DHT22;6291;48.924;12.204;2023-07-31T12:54:01;23.20;99.90
12452;DHT22;6291;48.924;12.204;2023-07-31T12:59:04;23.20;99.90
12452;DHT22;6291;48.924;12.204;2023-07-31T13:04:08;23.90;99.90
12452;DHT22;6291;48.924;12.204;2023-07-31T13:09:13;25.80;99.90
12452;DHT22;6291;48.924;12.204;2023-07-31T13:14:19;25.10;99.90
12452;DHT22;6291;48.924;12.204;2023-07-31T13:19:23;24.80;99.90
12452;DHT22;6291;48.924;12.204;2023-07-31T13:24:28;23.60;99.90
12452;DHT22;6291;48.924;12.204;2023-07-31T13:29:31;23.90;99.90
12452;DHT22;6291;48.924;12.204;2023-07-31T13:34:34;24.60;99.90
12452;DHT22;6291;48.924;12.204;2023-07-31T13:39:40;25.80;99.90
12452;DHT22;6291;48.924;12.204;2023-07-31T13:44:44;24.90;99.90
12452;DHT22;6291;48.924;12.204;2023-07-31T13:49:47;24.30;99.90
12452;DHT22;6291;48.924;12.204;2023-07-31T13:54:53;25.40;99.90
12452;DHT22;6291;48.924;12.204;2023-07-31T13:59:56;25.90;99.90
12452;DHT22;6291;48.924;12.204;2023-07-31T14:05:00;25.00;99.90
12452;DHT22;6291;48.924;12.204;2023-07-31T14:10:08;25.00;99.90
12452;DHT22;6291;48.924;12.204;2023-07-31T14:15:11;25.80;99.90
12452;DHT22;6291;48.924;12.204;2023-07-31T14:20:15;26.50;99.90
12452;DHT22;6291;48.924;12.204;2023-07-31T14:25:21;26.10;99.90
12452;DHT22;6291;48.924;12.204;2023-07-31T14:30:25;25.60;99.90
12452;DHT22;6291;48.924;12.204;2023-07-31T14:35:28;25.80;99.90
12452;DHT22;6291;48.924;12.204;2023-07-31T14:40:33;24.70;99.90
12452;DHT22;6291;48.924;12.204;2023-07-31T14:45:37;24.50;99.90
12452;DHT22;6291;48.924;12.204;2023-07-31T14:50:41;26.10;99.90
12452;DHT22;6291;48.924;12.204;2023-07-31T14:55:46;25.90;99.90
12452;DHT22;6291;48.924;12.204;2023-07-31T15:00:50;26.00;99.90
12452;DHT22;6291;48.924;12.204;2023-07-31T15:05:54;27.30;99.90
12452;DHT22;6291;48.924;12.204;2023-07-31T15:11:00;25.00;99.90
12452;DHT22;6291;48.924;12.204;2023-07-31T15:16:04;24.90;99.90
12452;DHT22;6291;48.924;12.204;2023-07-31T15:21:09;24.60;99.90
12452;DHT22;6291;48.924;12.204;2023-07-31T15:26:14;26.40;99.90
12452;DHT22;6291;48.924;12.204;2023-07-31T15:31:20;25.60;99.90
12452;DHT22;6291;48.924;12.204;2023-07-31T15:36:24;23.80;99.90
12452;DHT22;6291;48.924;12.204;2023-07-31T15:41:29;23.90;99.90
12452;DHT22;6291;48.924;12.204;2023-07-31T15:46:33;23.80;99.90
12452;DHT22;6291;48.924;12.204;2023-07-31T15:51:37;23.60;99.90
12452;DHT22;6291;48.924;12.204;2023-07-31T15:56:43;23.50;99.90
12452;DHT22;6291;48.924;12.204;2023-07-31T16:01:47;23.50;99.90
12452;DHT22;6291;48.924;12.204;2023-07-31T16:06:51;23.40;99.90
12452;DHT22;6291;48.924;12.204;2023-07-31T16:11:56;23.40;99.90
12452;DHT22;6291;48.924;12.204;2023-07-31T16:17:01;23.40;99.90
12452;DHT22;6291;48.924;12.204;2023-07-31T16:22:08;23.10;99.90
12452;DHT22;6291;48.924;12.204;2023-07-31T16:27:14;22.90;99.90
12452;DHT22;6291;48.924;12.204;2023-07-31T16:32:18;23.00;99.90
12452;DHT22;6291;48.924;12.204;2023-07-31T16:37:22;22.90;99.90
12452;DHT22;6291;48.924;12.204;2023-07-31T16:42:26;22.90;99.90
12452;DHT22;6291;48.924;12.204;2023-07-31T16:47:30;23.00;99.90
12452;DHT22;6291;48.924;12.204;2023-07-31T16:52:34;22.90;99.90
12452;DHT22;6291;48.924;12.204;2023-07-31T16:57:39;22.80;99.90
12452;DHT22;6291;48.924;12.204;2023-07-31T17:02:43;22.80;99.90
12452;DHT22;6291;48.924;12.204;2023-07-31T17:07:47;23.00;99.90
12452;DHT22;6291;48.924;12.204;2023-07-31T17:12:52;23.30;99.90
12452;DHT22;6291;48.924;12.204;2023-07-31T17:17:56;23.20;99.90
12452;DHT22;6291;48.924;12.204;2023-07-31T17:23:00;23.00;99.90
12452;DHT22;6291;48.924;12.204;2023-07-31T17:28:05;22.90;99.90
12452;DHT22;6291;48.924;12.204;2023-07-31T17:33:09;22.60;99.90
12452;DHT22;6291;48.924;12.204;2023-07-31T17:38:13;22.70;99.90
12452;DHT22;6291;48.924;12.204;2023-07-31T17:43:17;22.80;99.90
12452;DHT22;6291;48.924;12.204;2023-07-31T17:48:21;22.70;99.90
12452;DHT22;6291;48.924;12.204;2023-07-31T17:53:24;22.50;99.90
12452;DHT22;6291;48.924;12.204;2023-07-31T17:58:29;22.40;99.90
12452;DHT22;6291;48.924;12.204;2023-07-31T18:03:32;22.20;99.90
12452;DHT22;6291;48.924;12.204;2023-07-31T18:08:36;22.10;99.90
12452;DHT22;6291;48.924;12.204;2023-07-31T18:13:42;22.00;99.90
12452;DHT22;6291;48.924;12.204;2023-07-31T18:18:46;21.90;99.90
12452;DHT22;6291;48.924;12.204;2023-07-31T18:23:50;21.80;99.90
12452;DHT22;6291;48.924;12.204;2023-07-31T18:28:58;21.60;99.90
12452;DHT22;6291;48.924;12.204;2023-07-31T18:34:02;21.40;99.90
12452;DHT22;6291;48.924;12.204;2023-07-31T18:39:06;21.20;99.90
12452;DHT22;6291;48.924;12.204;2023-07-31T18:44:11;21.10;99.90
12452;DHT22;6291;48.924;12.204;2023-07-31T18:49:15;20.90;99.90
12452;DHT22;6291;48.924;12.204;2023-07-31T18:54:19;20.80;99.90
12452;DHT22;6291;48.924;12.204;2023-07-31T18:59:24;20.70;99.90
12452;DHT22;6291;48.924;12.204;2023-07-31T19:04:27;20.50;99.90
12452;DHT22;6291;48.924;12.204;2023-07-31T19:09:32;20.30;99.90
12452;DHT22;6291;48.924;12.204;2023-07-31T19:14:38;20.20;99.90
12452;DHT22;6291;48.924;12.204;2023-07-31T19:19:42;20.10;99.90
12452;DHT22;6291;48.924;12.204;2023-07-31T19:24:46;20.00;99.90
12452;DHT22;6291;48.924;12.204;2023-07-31T19:29:51;20.00;99.90
12452;DHT22;6291;48.924;12.204;2023-07-31T19:34:54;19.80;99.90
12452;DHT22;6291;48.924;12.204;2023-07-31T19:39:58;19.70;99.90
12452;DHT22;6291;48.924;12.204;2023-07-31T19:45:03;19.70;99.90
12452;DHT22;6291;48.924;12.204;2023-07-31T19:50:07;19.60;99.90
12452;DHT22;6291;48.924;12.204;2023-07-31T19:55:11;19.70;99.90
12452;DHT22;6291;48.924;12.204;2023-07-31T20:00:16;19.80;99.90
12452;DHT22;6291;48.924;12.204;2023-07-31T20:05:20;19.70;99.90
12452;DHT22;6291;48.924;12.204;2023-07-31T20:10:23;19.50;99.90
12452;DHT22;6291;48.924;12.204;2023-07-31T20:15:28;19.40;99.90
12452;DHT22;6291;48.924;12.204;2023-07-31T20:20:32;19.40;99.90
12452;DHT22;6291;48.924;12.204;2023-07-31T20:25:35;19.60;99.90
12452;DHT22;6291;48.924;12.204;2023-07-31T20:30:40;19.60;99.90
12452;DHT22;6291;48.924;12.204;2023-07-31T20:35:44;19.60;99.90
12452;DHT22;6291;48.924;12.204;2023-07-31T20:40:49;19.50;99.90
12452;DHT22;6291;48.924;12.204;2023-07-31T20:45:54;19.50;99.90
12452;DHT22;6291;48.924;12.204;2023-07-31T20:50:59;19.30;99.90
12452;DHT22;6291;48.924;12.204;2023-07-31T20:56:04;19.20;99.90
12452;DHT22;6291;48.924;12.204;2023-07-31T21:01:08;19.20;99.90
12452;DHT22;6291;48.924;12.204;2023-07-31T21:06:12;19.20;99.90
12452;DHT22;6291;48.924;12.204;2023-07-31T21:11:18;19.30;99.90
12452;DHT22;6291;48.924;12.204;2023-07-31T21:16:23;19.60;99.90
12452;DHT22;6291;48.924;12.204;2023-07-31T21:21:26;19.60;99.90
12452;DHT22;6291;48.924;12.204;2023-07-31T21:26:30;19.40;99.90
12452;DHT22;6291;48.924;12.204;2023-07-31T21:31:35;19.30;99.90
12452;DHT22;6291;48.924;12.204;2023-07-31T21:36:38;19.20;99.90
12452;DHT22;6291;48.924;12.204;2023-07-31T21:41:42;19.20;99.90
12452;DHT22;6291;48.924;12.204;2023-07-31T21:46:47;19.20;99.90
12452;DHT22;6291;48.924;12.204;2023-07-31T21:51:51;19.00;99.90
12452;DHT22;6291;48.924;12.204;2023-07-31T21:56:54;18.90;99.90
12452;DHT22;6291;48.924;12.204;2023-07-31T22:02:00;18.70;99.90
12452;DHT22;6291;48.924;12.204;2023-07-31T22:07:05;18.40;99.90
12452;DHT22;6291;48.924;12.204;2023-07-31T22:12:08;18.30;99.90
12452;DHT22;6291;48.924;12.204;2023-07-31T22:17:13;18.30;1.00
12452;DHT22;6291;48.924;12.204;2023-07-31T22:22:16;18.40;1.00
12452;DHT22;6291;48.924;12.204;2023-07-31T22:27:20;18.50;1.00
12452;DHT22;6291;48.924;12.204;2023-07-31T22:32:24;18.20;99.90
12452;DHT22;6291;48.924;12.204;2023-07-31T22:37:28;18.00;2.40
12452;DHT22;6291;48.924;12.204;2023-07-31T22:42:31;17.90;99.90
12452;DHT22;6291;48.924;12.204;2023-07-31T22:47:36;17.80;1.00
12452;DHT22;6291;48.924;12.204;2023-07-31T22:52:42;17.90;1.00
12452;DHT22;6291;48.924;12.204;2023-07-31T22:57:45;17.70;99.90
12452;DHT22;6291;48.924;12.204;2023-07-31T23:02:50;17.70;1.00
12452;DHT22;6291;48.924;12.204;2023-07-31T23:07:53;17.90;1.00
12452;DHT22;6291;48.924;12.204;2023-07-31T23:12:57;18.00;99.90
12452;DHT22;6291;48.924;12.204;2023-07-31T23:18:01;18.00;95.60
12452;DHT22;6291;48.924;12.204;2023-07-31T23:23:08;17.90;99.90
12452;DHT22;6291;48.924;12.204;2023-07-31T23:28:11;19.20;99.90
12452;DHT22;6291;48.924;12.204;2023-07-31T23:33:16;17.70;32.10
12452;DHT22;6291;48.924;12.204;2023-07-31T23:38:19;17.50;1.00
12452;DHT22;6291;48.924;12.204;2023-07-31T23:43:23;17.60;1.00
12452;DHT22;6291;48.924;12.204;2023-07-31T23:48:27;17.70;99.90
12452;DHT22;6291;48.924;12.204;2023-07-31T23:53:31;17.60;99.90
12452;DHT22;6291;48.924;12.204;2023-07-31T23:58:35;17.70;1.00
